createdAt,value
2023-03-29T00:00:00.416Z,5.25
2023-03-29T00:02:33.579Z,7.32
2023-03-29T00:05:04.851Z,5.45
2023-03-29T00:07:35.489Z,5.88
2023-03-29T00:10:04.618Z,6.35
2023-03-29T00:12:32.561Z,5.53
2023-03-29T00:15:00.340Z,7.55
2023-03-29T00:17:28.378Z,6.50
2023-03-29T00:19:55.743Z,5.20
2023-03-29T00:22:23.082Z,6.80
2023-03-29T00:24:54.271Z,6.43
2023-03-29T00:27:22.285Z,6.90
2023-03-29T00:29:49.613Z,6.63
2023-03-29T00:32:17.097Z,6.82
2023-03-29T00:34:46.054Z,7.18
2023-03-29T00:37:14.733Z,6.88
2023-03-29T00:39:42.320Z,8.68
2023-03-29T00:42:13.729Z,4.82
2023-03-29T00:45:16.188Z,5.57
2023-03-29T00:47:53.162Z,5.03
2023-03-29T00:50:31.819Z,6.70
2023-03-29T00:53:08.954Z,6.43
2023-03-29T00:55:55.432Z,5.88
2023-03-29T00:58:36.410Z,7.88
2023-03-29T01:01:19.369Z,4.60
2023-03-29T01:03:54.912Z,6.07
2023-03-29T01:06:27.149Z,5.32
2023-03-29T01:08:58.411Z,5.57
2023-03-29T01:11:43.987Z,5.10
2023-03-29T01:14:29.882Z,5.50
2023-03-29T01:16:58.114Z,5.65
2023-03-29T01:19:30.258Z,6.35
2023-03-29T01:22:39.126Z,6.78
2023-03-29T01:28:10.028Z,3.95
2023-03-29T01:30:43.736Z,8.30
2023-03-29T01:33:21.262Z,6.95
2023-03-29T01:36:11.760Z,4.22
2023-03-29T01:38:54.998Z,6.53
2023-03-29T01:41:26.685Z,7.03
2023-03-29T01:44:21.575Z,6.30
2023-03-29T01:46:58.723Z,5.35
2023-03-29T01:49:34.458Z,5.00
2023-03-29T01:52:08.221Z,5.13
2023-03-29T01:54:41.277Z,5.78
2023-03-29T01:57:10.621Z,5.20
2023-03-29T01:59:42.780Z,5.88
2023-03-29T02:02:14.736Z,6.57
2023-03-29T02:04:49.945Z,5.90
2023-03-29T02:07:21.002Z,7.43
2023-03-29T02:09:52.496Z,5.43
2023-03-29T02:12:20.590Z,5.78
2023-03-29T02:14:47.964Z,8.20
2023-03-29T02:17:23.886Z,6.65
2023-03-29T02:20:00.707Z,6.43
2023-03-29T02:22:33.392Z,5.65
2023-03-29T02:25:04.819Z,6.10
2023-03-29T02:27:32.084Z,5.22
2023-03-29T02:29:59.562Z,8.27
2023-03-29T02:32:35.089Z,10.18
2023-03-29T02:35:12.811Z,6.55
2023-03-29T02:37:44.190Z,5.72
2023-03-29T02:40:13.106Z,7.53
2023-03-29T02:42:43.763Z,5.95
2023-03-29T02:45:14.649Z,6.68
2023-03-29T02:47:46.892Z,7.50
2023-03-29T02:50:14.439Z,7.32
2023-03-29T02:52:52.971Z,7.03
2023-03-29T02:55:24.305Z,5.93
2023-03-29T02:57:51.751Z,7.65
2023-03-29T03:00:19.995Z,7.50
2023-03-29T03:02:48.619Z,9.75
2023-03-29T03:05:17.457Z,6.70
2023-03-29T03:07:46.090Z,7.18
2023-03-29T03:15:13.614Z,6.80
2023-03-29T03:17:41.789Z,10.32
2023-03-29T03:20:13.880Z,8.65
2023-03-29T03:22:48.696Z,7.95
2023-03-29T03:25:19.379Z,9.63
2023-03-29T03:27:48.438Z,5.82
2023-03-29T03:30:16.323Z,6.65
2023-03-29T03:33:06.872Z,8.00
2023-03-29T03:35:56.885Z,6.75
2023-03-29T03:38:24.608Z,6.82
2023-03-29T03:40:58.570Z,6.43
2023-03-29T03:43:27.133Z,6.70
2023-03-29T03:45:57.568Z,7.97
2023-03-29T03:48:26.070Z,5.82
2023-03-29T03:51:19.948Z,5.80
2023-03-29T03:53:48.321Z,6.53
2023-03-29T03:56:29.691Z,5.55
2023-03-29T03:59:15.847Z,8.75
2023-03-29T04:01:51.356Z,8.73
2023-03-29T04:04:22.225Z,5.68
2023-03-29T04:07:12.946Z,5.22
2023-03-29T04:09:56.362Z,7.30
2023-03-29T04:12:46.628Z,6.10
2023-03-29T04:15:13.988Z,5.53
2023-03-29T04:17:48.373Z,7.55
2023-03-29T04:20:27.318Z,5.95
2023-03-29T04:22:55.922Z,7.47
2023-03-29T04:25:23.738Z,7.00
2023-03-29T04:28:12.224Z,5.68
2023-03-29T04:30:49.075Z,7.22
2023-03-29T04:33:23.626Z,6.00
2023-03-29T04:35:59.005Z,5.25
2023-03-29T04:38:26.664Z,6.30
2023-03-29T04:40:55.685Z,5.65
2023-03-29T04:43:46.297Z,7.18
2023-03-29T04:46:27.050Z,9.07
2023-03-29T04:49:13.346Z,8.40
2023-03-29T04:51:43.939Z,6.63
2023-03-29T04:54:12.158Z,6.95
2023-03-29T04:57:08.117Z,6.57
2023-03-29T04:59:35.359Z,5.72
2023-03-29T05:02:08.565Z,6.63
2023-03-29T05:04:38.619Z,8.30
2023-03-29T05:07:13.112Z,6.28
2023-03-29T05:09:41.729Z,6.07
2023-03-29T05:12:10.176Z,6.18
2023-03-29T05:14:48.460Z,5.88
2023-03-29T05:17:16.466Z,7.47
2023-03-29T05:19:45.957Z,6.70
2023-03-29T05:22:15.307Z,7.78
2023-03-29T05:24:43.315Z,6.68
2023-03-29T05:27:17.550Z,5.90
2023-03-29T05:29:54.627Z,6.28
2023-03-29T05:35:11.644Z,6.32
2023-03-29T05:37:39.556Z,9.45
2023-03-29T05:40:10.068Z,7.70
2023-03-29T05:42:54.177Z,9.38
2023-03-29T05:45:22.987Z,5.45
2023-03-29T05:47:51.055Z,6.25
2023-03-29T05:50:18.572Z,7.65
2023-03-29T05:52:47.355Z,7.38
2023-03-29T05:55:14.843Z,8.45
2023-03-29T05:57:42.185Z,7.07
2023-03-29T06:00:21.788Z,8.85
2023-03-29T06:02:50.910Z,11.35
2023-03-29T06:05:20.247Z,8.10
2023-03-29T06:08:01.985Z,9.18
2023-03-29T06:10:44.171Z,7.38
2023-03-29T06:13:25.107Z,8.80
2023-03-29T06:15:53.308Z,10.63
2023-03-29T06:18:20.898Z,8.70
2023-03-29T06:20:50.825Z,10.80
2023-03-29T06:23:21.523Z,12.70
2023-03-29T06:25:51.446Z,7.90
2023-03-29T06:28:19.510Z,9.70
2023-03-29T06:30:48.218Z,7.35
2023-03-29T06:33:16.976Z,11.18
2023-03-29T06:35:51.360Z,10.98
2023-03-29T06:38:26.758Z,8.68
2023-03-29T06:41:32.136Z,8.10
2023-03-29T06:46:42.932Z,8.77
2023-03-29T06:49:10.488Z,9.73
2023-03-29T06:52:04.033Z,9.80
2023-03-29T06:54:31.698Z,10.23
2023-03-29T06:57:05.789Z,8.35
2023-03-29T06:59:35.015Z,8.15
2023-03-29T07:02:12.804Z,8.45
2023-03-29T07:04:48.707Z,9.32
2023-03-29T07:07:33.152Z,7.97
2023-03-29T07:10:12.962Z,11.23
2023-03-29T07:13:15.747Z,12.25
2023-03-29T07:15:44.870Z,9.43
2023-03-29T07:18:35.005Z,8.77
2023-03-29T07:21:02.847Z,7.00
2023-03-29T07:23:30.506Z,12.18
2023-03-29T07:25:58.022Z,7.65
2023-03-29T07:28:26.877Z,10.90
2023-03-29T07:31:02.459Z,8.57
2023-03-29T07:33:31.510Z,8.60
2023-03-29T07:36:03.417Z,8.27
2023-03-29T07:38:32.436Z,10.68
2023-03-29T07:41:08.157Z,6.95
2023-03-29T07:43:44.655Z,10.70
2023-03-29T07:46:14.108Z,9.18
2023-03-29T07:48:42.232Z,11.68
2023-03-29T07:51:11.830Z,10.68
2023-03-29T07:53:47.988Z,9.50
2023-03-29T07:56:41.548Z,10.25
2023-03-29T07:59:41.399Z,8.32
2023-03-29T08:02:13.334Z,8.55
2023-03-29T08:04:44.928Z,10.90
2023-03-29T08:07:19.035Z,12.13
2023-03-29T08:10:13.701Z,10.40
2023-03-29T08:13:09.338Z,9.75
2023-03-29T08:15:55.494Z,9.15
2023-03-29T08:18:34.716Z,9.45
2023-03-29T08:21:04.787Z,7.82
2023-03-29T08:23:32.618Z,6.50
2023-03-29T08:26:22.131Z,9.50
2023-03-29T08:28:50.788Z,7.53
2023-03-29T08:31:19.419Z,7.72
2023-03-29T08:33:46.808Z,9.70
2023-03-29T08:36:47.118Z,8.20
2023-03-29T08:39:23.082Z,10.18
2023-03-29T08:42:24.598Z,8.77
2023-03-29T08:45:10.044Z,8.00
2023-03-29T08:47:59.517Z,11.93
2023-03-29T08:50:40.836Z,7.75
2023-03-29T08:53:27.793Z,12.30
2023-03-29T08:56:16.440Z,8.77
2023-03-29T08:59:14.600Z,10.18
2023-03-29T09:01:42.574Z,9.50
2023-03-29T09:04:16.493Z,7.38
2023-03-29T09:07:11.129Z,7.60
2023-03-29T09:09:46.061Z,9.40
2023-03-29T09:12:52.761Z,9.75
2023-03-29T09:15:38.981Z,9.70
2023-03-29T09:18:38.859Z,8.35
2023-03-29T09:21:31.692Z,11.07
2023-03-29T09:24:28.876Z,7.80
2023-03-29T09:27:20.764Z,7.68
2023-03-29T09:30:04.711Z,9.57
2023-03-29T09:33:01.197Z,8.18
2023-03-29T09:35:53.774Z,8.20
2023-03-29T09:38:22.910Z,9.65
2023-03-29T09:40:57.212Z,8.63
2023-03-29T09:43:41.037Z,7.68
2023-03-29T09:46:40.569Z,9.63
2023-03-29T09:49:16.068Z,7.30
2023-03-29T09:51:49.088Z,9.00
2023-03-29T09:54:17.698Z,7.45
2023-03-29T09:57:03.790Z,7.53
2023-03-29T09:59:31.659Z,9.25
2023-03-29T10:02:11.882Z,10.02
2023-03-29T10:07:18.742Z,10.80
2023-03-29T10:09:51.848Z,7.93
2023-03-29T10:12:21.252Z,11.13
2023-03-29T10:14:53.466Z,7.82
2023-03-29T10:17:29.531Z,8.85
2023-03-29T10:20:04.027Z,9.27
2023-03-29T10:22:37.641Z,6.95
2023-03-29T10:25:13.265Z,7.05
2023-03-29T10:27:43.556Z,7.57
2023-03-29T10:30:18.867Z,8.45
2023-03-29T10:32:46.993Z,8.10
2023-03-29T10:35:22.543Z,8.25
2023-03-29T10:37:52.931Z,8.45
2023-03-29T10:40:29.317Z,7.47
2023-03-29T10:43:01.873Z,7.82
2023-03-29T10:45:34.044Z,8.30
2023-03-29T10:48:03.739Z,9.25
2023-03-29T10:50:35.903Z,7.78
2023-03-29T10:53:07.423Z,9.48
2023-03-29T10:55:41.742Z,10.40
2023-03-29T10:58:15.657Z,8.52
2023-03-29T11:00:53.962Z,7.28
2023-03-29T11:03:27.508Z,7.47
2023-03-29T11:06:07.668Z,6.43
2023-03-29T11:08:51.213Z,9.52
2023-03-29T11:12:01.248Z,6.95
2023-03-29T11:15:10.327Z,9.82
2023-03-29T11:17:43.517Z,8.68
2023-03-29T11:20:37.967Z,9.30
2023-03-29T11:23:07.973Z,8.45
2023-03-29T11:25:47.256Z,9.65
2023-03-29T11:28:19.605Z,10.95
2023-03-29T11:31:19.253Z,10.35
2023-03-29T11:34:00.277Z,9.65
2023-03-29T11:36:57.101Z,10.15
2023-03-29T11:39:27.036Z,9.02
2023-03-29T11:42:02.150Z,10.63
2023-03-29T11:44:31.380Z,9.83
2023-03-29T11:47:13.837Z,8.07
2023-03-29T11:50:00.551Z,8.00
2023-03-29T11:52:42.822Z,9.15
2023-03-29T11:55:13.425Z,8.88
2023-03-29T11:58:04.185Z,10.98
2023-03-29T12:00:37.439Z,8.35
2023-03-29T12:03:19.679Z,6.78
2023-03-29T12:05:58.159Z,8.10
2023-03-29T12:08:48.102Z,9.57
2023-03-29T12:11:33.345Z,9.15
2023-03-29T12:14:06.803Z,11.10
2023-03-29T12:16:48.921Z,11.38
2023-03-29T12:19:28.805Z,6.85
2023-03-29T12:21:58.139Z,9.27
2023-03-29T12:24:31.729Z,6.90
2023-03-29T12:27:31.738Z,9.75
2023-03-29T12:30:16.364Z,7.50
2023-03-29T12:32:57.462Z,8.43
2023-03-29T12:36:01.806Z,6.57
2023-03-29T12:38:51.194Z,7.32
2023-03-29T12:41:38.279Z,6.10
2023-03-29T12:44:25.852Z,6.07
2023-03-29T12:46:59.332Z,8.27
2023-03-29T12:49:37.610Z,7.15
2023-03-29T12:52:30.464Z,6.80
2023-03-29T12:55:00.849Z,4.90
2023-03-29T12:57:44.302Z,6.63
2023-03-29T13:00:42.297Z,6.93
2023-03-29T13:03:27.451Z,8.93
2023-03-29T13:06:12.482Z,8.57
2023-03-29T13:08:42.990Z,11.35
2023-03-29T13:11:31.251Z,5.55
2023-03-29T13:14:01.684Z,6.85
2023-03-29T13:16:34.722Z,10.05
2023-03-29T13:19:07.711Z,13.77
2023-03-29T13:21:53.883Z,7.65
2023-03-29T13:24:30.045Z,10.27
2023-03-29T13:27:27.487Z,7.72
2023-03-29T13:30:14.308Z,6.95
2023-03-29T13:33:06.456Z,6.72
2023-03-29T13:36:02.170Z,8.82
2023-03-29T13:38:35.553Z,6.00
2023-03-29T13:41:12.174Z,7.07
2023-03-29T13:43:52.689Z,5.97
2023-03-29T13:46:43.381Z,4.60
2023-03-29T13:49:27.048Z,11.02
2023-03-29T13:51:54.313Z,6.88
2023-03-29T13:54:45.883Z,4.32
2023-03-29T13:57:20.122Z,8.38
2023-03-29T14:00:17.734Z,9.73
2023-03-29T14:02:51.777Z,9.52
2023-03-29T14:05:29.333Z,8.40
2023-03-29T14:07:58.979Z,9.43
2023-03-29T14:10:33.279Z,6.50
2023-03-29T14:13:03.870Z,10.95
2023-03-29T14:15:44.023Z,7.70
2023-03-29T14:18:14.924Z,9.70
2023-03-29T14:20:53.519Z,5.07
2023-03-29T14:23:27.083Z,6.65
2023-03-29T14:25:54.336Z,6.15
2023-03-29T14:28:27.831Z,8.45
2023-03-29T14:30:56.199Z,8.20
2023-03-29T14:33:34.646Z,5.85
2023-03-29T14:36:04.164Z,6.63
2023-03-29T14:38:32.327Z,5.30
2023-03-29T14:41:01.092Z,6.93
2023-03-29T14:43:32.020Z,9.50
2023-03-29T14:46:02.865Z,10.77
2023-03-29T14:48:33.104Z,6.47
2023-03-29T14:51:01.048Z,6.78
2023-03-29T14:53:31.822Z,7.95
2023-03-29T14:55:59.660Z,7.85
2023-03-29T14:58:33.465Z,8.93
2023-03-29T15:01:16.080Z,10.10
2023-03-29T15:03:54.940Z,11.55
2023-03-29T15:06:24.888Z,9.68
2023-03-29T15:09:04.419Z,7.55
2023-03-29T15:11:33.961Z,5.65
2023-03-29T15:14:08.539Z,7.72
2023-03-29T15:16:45.059Z,6.10
2023-03-29T15:19:19.659Z,15.00
2023-03-29T15:21:51.174Z,10.52
2023-03-29T15:24:31.152Z,7.80
2023-03-29T15:27:19.613Z,9.65
2023-03-29T15:29:47.948Z,7.32
2023-03-29T15:32:31.519Z,5.80
2023-03-29T15:35:00.158Z,13.52
2023-03-29T15:37:28.015Z,7.65
2023-03-29T15:39:56.319Z,8.75
2023-03-29T15:42:24.718Z,12.55
2023-03-29T15:44:56.553Z,8.45
2023-03-29T15:47:24.224Z,8.82
2023-03-29T15:49:51.830Z,6.03
2023-03-29T15:52:19.161Z,8.13
2023-03-29T15:54:46.424Z,9.13
2023-03-29T15:57:16.201Z,8.98
2023-03-29T15:59:44.328Z,8.15
2023-03-29T16:02:16.551Z,8.77
2023-03-29T16:04:44.076Z,10.82
2023-03-29T16:07:17.071Z,10.82
2023-03-29T16:09:45.855Z,10.77
2023-03-29T16:12:13.501Z,8.07
2023-03-29T16:14:42.611Z,9.73
2023-03-29T16:17:10.807Z,7.63
2023-03-29T16:19:38.112Z,7.78
2023-03-29T16:22:07.173Z,12.90
2023-03-29T16:24:35.575Z,8.25
2023-03-29T16:27:03.700Z,9.95
2023-03-29T16:29:31.626Z,5.95
2023-03-29T16:31:59.319Z,8.65
2023-03-29T16:34:26.711Z,9.68
2023-03-29T16:36:54.133Z,13.30
2023-03-29T16:39:21.491Z,8.57
2023-03-29T16:41:50.019Z,10.63
2023-03-29T16:44:22.458Z,11.23
2023-03-29T16:46:53.587Z,9.27
2023-03-29T16:49:20.863Z,10.55
2023-03-29T16:51:48.592Z,6.93
2023-03-29T16:54:17.255Z,9.68
2023-03-29T16:56:44.545Z,12.10
2023-03-29T16:59:12.208Z,10.02
2023-03-29T17:01:40.582Z,13.43
2023-03-29T17:04:08.561Z,8.48
2023-03-29T17:06:36.006Z,10.77
2023-03-29T17:09:04.892Z,9.63
2023-03-29T17:11:32.560Z,9.30
2023-03-29T17:14:00.346Z,9.65
2023-03-29T17:16:29.137Z,12.15
2023-03-29T17:19:00.308Z,9.02
2023-03-29T17:21:29.130Z,8.25
2023-03-29T17:23:56.530Z,6.97
2023-03-29T17:26:24.229Z,9.60
2023-03-29T17:28:51.556Z,9.40
2023-03-29T17:31:19.354Z,10.15
2023-03-29T17:33:47.412Z,9.35
2023-03-29T17:36:14.962Z,9.60
2023-03-29T17:38:43.072Z,10.40
2023-03-29T17:41:10.975Z,10.40
2023-03-29T17:43:38.246Z,8.95
2023-03-29T17:46:06.098Z,8.50
2023-03-29T17:48:33.472Z,13.15
2023-03-29T17:51:00.786Z,11.60
2023-03-29T17:53:28.148Z,9.23
2023-03-29T17:55:55.400Z,8.70
2023-03-29T17:58:22.715Z,10.60
2023-03-29T18:00:50.350Z,13.13
2023-03-29T18:03:18.014Z,15.65
2023-03-29T18:05:45.508Z,9.77
2023-03-29T18:08:14.798Z,10.82
2023-03-29T18:10:42.085Z,11.82
2023-03-29T18:13:13.749Z,7.63
2023-03-29T18:15:41.409Z,10.52
2023-03-29T18:18:08.644Z,10.55
2023-03-29T18:20:35.968Z,11.00
2023-03-29T18:23:03.345Z,15.07
2023-03-29T18:25:30.604Z,15.18
2023-03-29T18:27:57.887Z,11.82
2023-03-29T18:30:28.904Z,11.40
2023-03-29T18:32:56.286Z,11.88
2023-03-29T18:35:23.737Z,17.08
2023-03-29T18:37:52.198Z,13.90
2023-03-29T18:40:24.439Z,12.60
2023-03-29T18:42:51.944Z,17.40
2023-03-29T18:45:19.469Z,11.75
2023-03-29T18:47:46.874Z,10.95
2023-03-29T18:50:14.274Z,15.90
2023-03-29T18:52:42.043Z,17.05
2023-03-29T18:55:10.215Z,15.38
2023-03-29T18:57:37.592Z,10.82
2023-03-29T19:00:10.537Z,12.27
2023-03-29T19:02:41.613Z,11.65
2023-03-29T19:05:09.501Z,10.85
2023-03-29T19:07:37.032Z,10.85
2023-03-29T19:10:07.314Z,12.73
2023-03-29T19:12:35.206Z,13.18
2023-03-29T19:15:02.537Z,11.32
2023-03-29T19:17:30.076Z,10.35
2023-03-29T19:19:57.498Z,13.57
2023-03-29T19:22:24.886Z,12.93
2023-03-29T19:24:52.227Z,16.60
2023-03-29T19:27:19.624Z,14.45
2023-03-29T19:29:48.062Z,11.73
2023-03-29T19:32:15.458Z,11.38
2023-03-29T19:34:42.712Z,11.10
2023-03-29T19:37:10.059Z,13.65
2023-03-29T19:39:37.377Z,15.15
2023-03-29T19:42:04.771Z,11.63
2023-03-29T19:44:32.047Z,10.63
2023-03-29T19:46:59.465Z,11.52
2023-03-29T19:49:27.191Z,11.48
2023-03-29T19:51:58.272Z,14.90
2023-03-29T19:54:26.615Z,11.07
2023-03-29T19:56:57.420Z,13.00
2023-03-29T19:59:26.839Z,13.02
2023-03-29T20:01:57.197Z,10.10
2023-03-29T20:04:25.634Z,13.35
2023-03-29T20:06:53.452Z,14.35
2023-03-29T20:09:20.890Z,14.75
2023-03-29T20:11:48.210Z,13.30
2023-03-29T20:14:15.957Z,13.52
2023-03-29T20:16:44.727Z,13.88
2023-03-29T20:19:14.105Z,15.70
2023-03-29T20:21:41.461Z,13.30
2023-03-29T20:24:09.242Z,19.23
2023-03-29T20:26:39.722Z,13.27
2023-03-29T20:29:07.245Z,16.10
2023-03-29T20:31:34.596Z,14.43
2023-03-29T20:34:02.026Z,15.18
2023-03-29T20:36:30.601Z,13.40
2023-03-29T20:38:59.154Z,20.88
2023-03-29T20:41:26.787Z,12.80
2023-03-29T20:44:00.312Z,15.05
2023-03-29T20:46:35.689Z,18.17
2023-03-29T20:49:05.559Z,17.50
2023-03-29T20:51:33.168Z,18.50
2023-03-29T20:54:05.894Z,16.52
2023-03-29T20:56:39.678Z,15.57
2023-03-29T20:59:10.507Z,16.50
2023-03-29T21:01:40.995Z,16.10
2023-03-29T21:04:10.598Z,10.93
2023-03-29T21:06:39.461Z,16.92
2023-03-29T21:09:07.214Z,14.73
2023-03-29T21:11:59.579Z,13.15
2023-03-29T21:14:26.997Z,16.17
2023-03-29T21:16:54.203Z,16.52
2023-03-29T21:19:21.468Z,15.18
2023-03-29T21:21:52.128Z,13.93
2023-03-29T21:24:19.555Z,19.45
2023-03-29T21:26:46.890Z,15.05
2023-03-29T21:29:14.173Z,16.42
2023-03-29T21:31:41.784Z,14.85
2023-03-29T21:34:09.101Z,15.23
2023-03-29T21:36:36.331Z,13.57
2023-03-29T21:39:04.017Z,13.90
2023-03-29T21:41:31.376Z,11.63
2023-03-29T21:43:58.594Z,14.55
2023-03-29T21:46:26.294Z,12.25
2023-03-29T21:48:53.778Z,11.48
2023-03-29T21:51:21.056Z,13.10
2023-03-29T21:53:48.315Z,11.73
2023-03-29T21:56:15.702Z,15.13
2023-03-29T21:58:43.016Z,17.48
2023-03-29T22:01:10.631Z,13.88
2023-03-29T22:03:38.489Z,13.13
2023-03-29T22:06:10.430Z,12.45
2023-03-29T22:08:43.310Z,12.63
2023-03-29T22:11:14.298Z,13.60
2023-03-29T22:13:43.122Z,15.20
2023-03-29T22:16:18.223Z,16.75
2023-03-29T22:18:49.581Z,19.50
2023-03-29T22:21:31.024Z,18.67
2023-03-29T22:24:00.108Z,15.93
2023-03-29T22:26:30.403Z,15.57
2023-03-29T22:28:59.425Z,17.00
2023-03-29T22:31:28.620Z,16.30
2023-03-29T22:33:56.271Z,15.50
2023-03-29T22:36:27.081Z,12.00
2023-03-29T22:38:54.841Z,15.65
2023-03-29T22:41:23.740Z,13.23
2023-03-29T22:43:52.597Z,11.70
2023-03-29T22:46:20.836Z,14.50
2023-03-29T22:48:48.627Z,14.63
2023-03-29T22:51:16.717Z,10.60
2023-03-29T22:53:43.976Z,12.98
2023-03-29T22:56:17.113Z,11.27
2023-03-29T22:58:44.780Z,14.95
2023-03-29T23:01:12.591Z,15.10
2023-03-29T23:03:39.841Z,13.55
2023-03-29T23:06:07.658Z,12.07
2023-03-29T23:08:35.267Z,14.73
2023-03-29T23:11:03.658Z,15.73
2023-03-29T23:13:31.171Z,14.23
2023-03-29T23:16:00.078Z,15.75
2023-03-29T23:18:30.192Z,16.35
2023-03-29T23:20:59.128Z,12.77
2023-03-29T23:23:27.188Z,12.85
2023-03-29T23:25:55.782Z,14.18
2023-03-29T23:28:27.023Z,30.15
2023-03-29T23:31:03.522Z,50.05
2023-03-29T23:33:36.264Z,36.75
2023-03-29T23:36:05.981Z,63.28
2023-03-29T23:38:35.474Z,36.85
2023-03-29T23:41:06.124Z,24.40
2023-03-29T23:43:37.145Z,15.23
2023-03-29T23:46:07.042Z,15.18
2023-03-29T23:48:34.689Z,13.85
2023-03-29T23:51:03.118Z,20.85
2023-03-29T23:53:31.442Z,13.98
2023-03-29T23:56:01.258Z,15.30
2023-03-29T23:58:33.692Z,10.75
